x

Southeast Bering Sea -205nm Wnw Of Dutch Harbor, Ak (46073) Wave Buoy

6:50 - Sat 23rd Aug 2014 All times are UTC.

  • Sig Wave height 3.0ft
  • Swell Direction
  • Peak Period 4s
  • Average Period 4s
  • Wind
    16mph, 20mph gusts
  • Sea Temp 54°f
  • Ar Temp 53°f
  • Sea Pressure 1008.5mb

More Historic Weather Station data

Upgrade to MSW Pro to gain access to the past 30 days of data for over 8000 Wavebouys and Weather Stations around the globe.

Join Pro

Comparision Forecast

View Surf forecast
   
Sáb 08/23 6:50 3ft 4s 4s 16 20 mph 1008.5mb 54f 53f
5:50 3ft 4s 4s 13 16 mph 1008.7mb 54f 52f
4:50 3ft 5s 4s 20 25 mph 1008.7mb 54f 54f
3:50 3ft 5s 4s 18 20 mph 1008.9mb 54f 54f
2:50 2.5ft 5s 4s 16 20 mph 1009.7mb 54f 54f
1:50 2.5ft 4s 4s 13 16 mph 1010.1mb 54f 54f
12:50 2.5ft 5s 4s 13 18 mph 1010.7mb 54f 54f
Sex 08/22 11:50 2.5ft 5s 4s 9 11 mph 1011.1mb 54f 54f
10:50 3ft 5s 5s 9 11 mph 1011.5mb 54f 54f
9:50 3ft 5s 4s 4 7 mph 1011.6mb 54f 54f
8:50 3.5ft 5s 4s 4 7 mph 1011.5mb 54f 53f
7:50 3.5ft 5s 4s 16 18 mph 1011.4mb 54f 54f
6:50 4ft 5s 4s 18 20 mph 1011.5mb 54f 54f
5:50 3.5ft 5s 4s 18 22 mph 1011.5mb 54f 54f
4:50 3.5ft 5s 4s 20 25 mph 1011.6mb 54f 54f
3:50 3.5ft 5s 4s 20 25 mph 1011.8mb 54f 54f
2:50 3.5ft 5s 4s 18 25 mph 1012.3mb 54f 54f
1:50 3.5ft 5s 4s 18 20 mph 1012.7mb 54f 55f
12:50 2.5ft 4s 4s 18 20 mph 1013.3mb 54f 54f
11:50 2.5ft 7s 4s 16 18 mph 1013.9mb 54f 55f
10:50 2.5ft 15s 4s 11 13 mph 1014.2mb 54f 55f
9:50 2.5ft 6s 4s 11 13 mph 1014.8mb 54f 55f
8:50 2.5ft 8s 4s 13 16 mph 1015mb 54f 55f
7:50 2.5ft 15s 4s 11 13 mph 1014.9mb 54f 55f
6:50 2.5ft 15s 4s 13 16 mph 1014.6mb 54f 54f
5:50 2.5ft 14s 4s 13 16 mph 1014.8mb 54f 54f
4:50 2.5ft 14s 4s 13
mph
1014.8mb 54f 54f
3:50 2.5ft 15s 4s 13 16 mph 1014.9mb 54f 54f
2:50 2.5ft 15s 5s 11 13 mph 1015.2mb 54f 55f
1:50 3ft 5s 4s 9 11 mph 1015.5mb 54f 55f
12:50 3ft 5s 5s 11
mph
1015.7mb 54f 55f
Qui 08/21 11:50 2.5ft 6s 5s 11 13 mph 1016mb 54f 55f
10:50 3ft 6s 5s 11 13 mph 1016.2mb 54f 55f
9:50 3.5ft 6s 5s 11 13 mph 1016.5mb 54f 55f
8:50 3.5ft 6s 5s 11
mph
1016.2mb 54f 54f
7:50 3.5ft 6s 5s 16 18 mph 1016.1mb 54f 54f
6:50 3.5ft 6s 5s 11 13 mph 1016.3mb 54f 54f
5:50 3.5ft 7s 5s 13 16 mph 1016.3mb 54f 54f
4:50 3.5ft 5s 5s 13 18 mph 1015.9mb 54f 54f
3:50 3ft 4s 4s 13 16 mph 1015.8mb 54f 54f
2:50 3.5ft 5s 4s 13
mph
1015.9mb 54f 54f
1:50 3ft 5s 4s 13 16 mph 1015.8mb 54f 54f
12:50 3.5ft 5s 4s 13 16 mph 1015.8mb 54f 54f
11:50 3.5ft 5s 4s 13 18 mph 1016mb 54f 54f
10:50 3.5ft 5s 4s 16 18 mph 1016.1mb 54f 54f
9:50 3ft 4s 4s 16 18 mph 1016.1mb 54f 54f
8:50 2.5ft 4s 4s 16 20 mph 1016.2mb 54f 54f
7:50 2.5ft 5s 4s 16 20 mph 1016.1mb 54f 54f
6:50 2.5ft 4s 4s 16 18 mph 1015.8mb 54f 54f
5:50 2.5ft 4s 4s 16 20 mph 1015.6mb 54f 54f
4:50 2.5ft 4s 4s 16 18 mph 1015.6mb 54f 54f
3:50 2.5ft 4s 4s 16 18 mph 1015.7mb 54f 54f
2:50 2.5ft 4s 4s 16 18 mph 1016mb 54f 54f
1:50 2.5ft 4s 4s 16 18 mph 1016.3mb 54f 54f
12:50 3ft 4s 4s 13 16 mph 1016.7mb 54f 54f
Qua 08/20 11:50 3ft 4s 4s 16 18 mph 1016.9mb 54f 54f
10:50 2.5ft 4s 4s 16 18 mph 1017mb 54f 54f
9:50 2.5ft 5s 4s 13 16 mph 1017.5mb 54f 54f
8:50 2.5ft 4s 4s 16 18 mph 1017.6mb 54f 54f
7:50 2.5ft 4s 4s 13 18 mph 1017.5mb 54f 53f
6:50 2.5ft 5s 4s 18 20 mph 1017.5mb 54f 53f
5:50 2.5ft 5s 4s 16 18 mph 1017.5mb 54f 53f
4:50 2.5ft 4s 4s 16 18 mph 1017.6mb 54f 53f
3:50 3ft 4s 4s 13 16 mph 1017.7mb 54f 53f
2:50 3ft 4s 4s 16 18 mph 1017.8mb 54f 53f
1:50 3.5ft 4s 4s 16 18 mph 1018mb 54f 53f
12:50 3.5ft 4s 4s 16 18 mph 1017.8mb 54f 53f
11:50 2.5ft 3s 4s 16 18 mph 1018.1mb 54f 53f
10:50 2.5ft 4s 4s 16 18 mph 1018.3mb 54f 54f
9:50 2.5ft 7s 4s 16 18 mph 1018.4mb 54f 54f
8:50 2.5ft 7s 4s 16 18 mph 1018.4mb 54f 54f
7:50 2ft 7s 5s 13 16 mph 1018.4mb 54f 54f
6:50 2ft 8s 5s 11 13 mph 1018.3mb 54f 54f
5:50 1.6ft 8s 5s 11
mph
1018.1mb 54f 54f
4:50 1.6ft 6s 5s 11 13 mph 1018.1mb 54f 54f
3:50 1.6ft 15s 5s 11
mph
1018.1mb 54f 54f
2:50 1.6ft 15s 5s 9 11 mph 1018.3mb 54f 54f
1:50 2ft 15s 5s 9
mph
1018.6mb 54f 54f
12:50 2ft 15s 5s 7 9 mph 1018.6mb 54f 54f
Ter 08/19 11:50 2ft 6s 5s 9 11 mph 1018.7mb 54f 54f
10:50 2ft 5s 5s 9 11 mph 1018.6mb 54f 54f
9:50 2.5ft 15s 6s 9
mph
1018.7mb 54f 53f
8:50 2ft 7s 6s 9 11 mph 1018.7mb 54f 53f
7:50 2ft 15s 6s 11 13 mph 1018.5mb 54f 53f
6:50 2ft 8s 6s 7 9 mph 1018.3mb 54f 53f
5:50 2ft 6s 6s 9
mph
1018.2mb 54f 53f
4:50 2ft 7s 6s 7 9 mph 1018mb 54f 53f
3:50 2ft 7s 5s 7 9 mph 1018mb 54f 54f
2:50 2ft 7s 5s 7 9 mph 1018mb 54f 54f
1:50 2ft 6s 5s 7
mph
1018.1mb 54f 54f
12:50 2.5ft 6s 5s 7
mph
1018.2mb 54f 54f
11:50 2.5ft 6s 5s 7
mph
1018.2mb 54f 54f
10:50 2.5ft 6s 5s 7 9 mph 1018.2mb 54f 54f
9:50 2.5ft 5s 5s 9 11 mph 1018.2mb 54f 54f
8:50 2.5ft 6s 6s 7 9 mph 1018.4mb 54f 54f
7:50 2.5ft 6s 6s 7 9 mph 1018.3mb 54f 54f